createdAt,value
2019-02-14T00:02:14.523Z,46.23
2019-02-14T00:04:42.908Z,45.55
2019-02-14T00:07:11.282Z,45.64
2019-02-14T00:09:39.669Z,44.63
2019-02-14T00:12:08.052Z,45.46
2019-02-14T00:14:36.437Z,44.87
2019-02-14T00:17:04.820Z,45.86
2019-02-14T00:19:33.199Z,45.86
2019-02-14T00:22:01.580Z,45.94
2019-02-14T00:24:29.955Z,45.77
2019-02-14T00:26:58.340Z,45.85
2019-02-14T00:29:26.734Z,45.49
2019-02-14T00:31:55.107Z,45.47
2019-02-14T00:34:23.486Z,45.53
2019-02-14T00:36:53.347Z,45.75
2019-02-14T00:39:22.183Z,46.04
2019-02-14T00:41:50.550Z,45.89
2019-02-14T00:44:18.926Z,46.09
2019-02-14T00:46:47.295Z,45.62
2019-02-14T00:49:15.667Z,45.54
2019-02-14T00:51:44.055Z,46.06
2019-02-14T00:54:13.255Z,45.81
2019-02-14T00:56:41.627Z,45.68
2019-02-14T00:59:10.959Z,45.93
2019-02-14T01:01:39.350Z,44.45
2019-02-14T01:04:07.721Z,45.41
2019-02-14T01:06:36.109Z,45.23
2019-02-14T01:09:05.620Z,45.47
2019-02-14T01:11:33.994Z,45.66
2019-02-14T01:14:02.403Z,45.79
2019-02-14T01:16:31.145Z,45.75
2019-02-14T01:18:59.527Z,45.97
2019-02-14T01:21:27.922Z,45.69
2019-02-14T01:23:56.308Z,45.78
2019-02-14T01:26:24.693Z,45.84
2019-02-14T01:28:53.078Z,45.91
2019-02-14T01:31:21.453Z,45.43
2019-02-14T01:33:49.819Z,45.78
2019-02-14T01:36:18.206Z,45.51
2019-02-14T01:38:46.591Z,45.51
2019-02-14T01:41:14.983Z,45.59
2019-02-14T01:43:43.356Z,45.56
2019-02-14T01:46:11.755Z,45.39
2019-02-14T01:48:40.208Z,45.20
2019-02-14T01:51:08.592Z,45.61
2019-02-14T01:53:36.981Z,45.25
2019-02-14T01:56:05.364Z,45.24
2019-02-14T01:58:33.735Z,45.85
2019-02-14T02:01:02.115Z,45.78
2019-02-14T02:03:30.483Z,45.18
2019-02-14T02:05:58.924Z,45.68
2019-02-14T02:08:27.299Z,45.77
2019-02-14T02:10:55.953Z,44.54
2019-02-14T02:13:24.325Z,45.01
2019-02-14T02:15:53.058Z,44.61
2019-02-14T02:18:21.800Z,44.80
2019-02-14T02:20:50.261Z,45.13
2019-02-14T02:23:18.624Z,45.28
2019-02-14T02:25:47.004Z,45.02
2019-02-14T02:28:15.374Z,44.60
2019-02-14T02:30:43.753Z,44.80
2019-02-14T02:33:12.125Z,43.37
2019-02-14T02:35:40.512Z,43.94
2019-02-14T02:38:08.889Z,44.59
2019-02-14T02:40:37.270Z,44.84
2019-02-14T02:43:05.961Z,44.18
2019-02-14T02:45:34.343Z,45.17
2019-02-14T02:48:02.711Z,44.86
2019-02-14T02:50:31.087Z,44.63
2019-02-14T02:52:59.462Z,44.40
2019-02-14T02:55:27.847Z,44.49
2019-02-14T02:57:56.226Z,44.30
2019-02-14T03:00:24.611Z,44.36
2019-02-14T03:02:53.388Z,45.44
2019-02-14T03:05:21.753Z,45.43
2019-02-14T03:07:50.134Z,44.90
2019-02-14T03:10:18.499Z,43.77
2019-02-14T03:12:46.891Z,44.83
2019-02-14T03:15:15.791Z,45.46
2019-02-14T03:17:44.172Z,45.53
2019-02-14T03:20:13.182Z,44.97
2019-02-14T03:22:41.583Z,45.26
2019-02-14T03:25:20.078Z,44.74
2019-02-14T03:27:48.464Z,44.76
2019-02-14T03:30:17.199Z,45.12
2019-02-14T03:32:45.575Z,45.10
2019-02-14T03:35:13.949Z,45.35
2019-02-14T03:37:42.326Z,44.41
2019-02-14T03:40:12.442Z,45.05
2019-02-14T03:42:40.826Z,45.11
2019-02-14T03:45:17.588Z,44.10
2019-02-14T03:47:45.971Z,44.34
2019-02-14T03:50:14.622Z,45.04
2019-02-14T03:52:43.239Z,45.30
2019-02-14T03:55:11.983Z,45.43
2019-02-14T03:57:40.422Z,45.25
2019-02-14T04:00:11.955Z,45.33
2019-02-14T04:02:40.339Z,45.28
2019-02-14T04:05:09.153Z,44.68
2019-02-14T04:07:37.575Z,44.57
2019-02-14T04:10:14.013Z,45.32
2019-02-14T04:12:42.384Z,44.91
2019-02-14T04:15:17.936Z,45.35
2019-02-14T04:17:46.318Z,45.21
2019-02-14T04:20:14.759Z,45.09
2019-02-14T04:22:43.139Z,45.12
2019-02-14T04:25:11.584Z,44.82
2019-02-14T04:27:39.977Z,45.03
2019-02-14T04:30:11.284Z,44.59
2019-02-14T04:32:39.667Z,44.50
2019-02-14T04:35:08.047Z,45.30
2019-02-14T04:37:36.434Z,45.57
2019-02-14T04:40:12.578Z,45.62
2019-02-14T04:42:40.956Z,45.37
2019-02-14T04:45:11.159Z,44.86
2019-02-14T04:47:39.537Z,44.85
2019-02-14T04:50:11.766Z,44.73
2019-02-14T04:52:40.153Z,46.46
2019-02-14T04:55:10.163Z,46.77
2019-02-14T04:57:38.545Z,46.52
2019-02-14T05:00:10.267Z,45.65
2019-02-14T05:02:38.710Z,45.19
2019-02-14T05:05:08.217Z,44.55
2019-02-14T05:07:36.619Z,44.61
2019-02-14T05:10:07.532Z,45.87
2019-02-14T05:12:35.911Z,46.12
2019-02-14T05:15:06.694Z,45.04
2019-02-14T05:17:35.149Z,46.33
2019-02-14T05:20:04.260Z,46.71
2019-02-14T05:22:32.652Z,46.46
2019-02-14T05:25:01.019Z,45.29
2019-02-14T05:27:29.406Z,46.49
2019-02-14T05:29:57.777Z,45.20
2019-02-14T05:32:26.163Z,44.65
2019-02-14T05:34:54.574Z,44.57
2019-02-14T05:37:22.950Z,41.45
2019-02-14T05:39:51.322Z,43.70
2019-02-14T05:42:19.703Z,45.80
2019-02-14T05:44:48.074Z,47.18
2019-02-14T05:47:16.475Z,46.89
2019-02-14T05:49:44.827Z,46.94
2019-02-14T05:52:13.197Z,46.85
2019-02-14T05:54:41.580Z,47.04
2019-02-14T05:57:09.963Z,47.04
2019-02-14T05:59:38.335Z,47.54
2019-02-14T06:02:06.710Z,47.17
2019-02-14T06:04:35.089Z,46.50
2019-02-14T06:07:03.480Z,47.33
2019-02-14T06:09:31.857Z,47.26
2019-02-14T06:12:00.227Z,47.22
2019-02-14T06:14:28.608Z,47.05
2019-02-14T06:16:56.982Z,46.40
2019-02-14T06:19:25.365Z,47.53
2019-02-14T06:21:53.739Z,47.40
2019-02-14T06:24:22.113Z,47.82
2019-02-14T06:26:50.487Z,47.50
2019-02-14T06:29:18.871Z,47.41
2019-02-14T06:31:47.235Z,47.50
2019-02-14T06:34:15.619Z,47.18
2019-02-14T06:36:43.987Z,47.41
2019-02-14T06:39:12.398Z,47.67
2019-02-14T06:41:40.780Z,47.21
2019-02-14T06:44:09.171Z,47.55
2019-02-14T06:46:37.547Z,47.42
2019-02-14T06:49:05.963Z,47.19
2019-02-14T06:51:34.309Z,47.02
2019-02-14T06:54:02.692Z,45.28
2019-02-14T06:56:31.063Z,46.73
2019-02-14T06:58:59.447Z,46.44
2019-02-14T07:01:27.818Z,46.02
2019-02-14T07:03:56.207Z,45.98
2019-02-14T07:06:25.229Z,45.74
2019-02-14T07:08:53.619Z,45.71
2019-02-14T07:11:21.988Z,44.68
2019-02-14T07:13:50.411Z,44.45
2019-02-14T07:16:18.779Z,44.55
2019-02-14T07:18:47.160Z,44.66
2019-02-14T07:21:15.527Z,44.40
2019-02-14T07:23:43.903Z,43.81
2019-02-14T07:26:12.283Z,44.51
2019-02-14T07:28:40.666Z,44.41
2019-02-14T07:31:09.041Z,44.17
2019-02-14T07:33:37.433Z,44.00
2019-02-14T07:36:05.807Z,43.86
2019-02-14T07:38:35.107Z,43.70
2019-02-14T07:41:03.559Z,43.40
2019-02-14T07:43:31.997Z,43.18
2019-02-14T07:46:00.437Z,42.88
2019-02-14T07:48:28.820Z,42.72
2019-02-14T07:50:57.209Z,42.55
2019-02-14T07:53:25.584Z,42.57
2019-02-14T07:55:53.964Z,42.59
2019-02-14T07:58:22.328Z,42.79
2019-02-14T08:00:50.726Z,43.12
2019-02-14T08:03:19.101Z,42.67
2019-02-14T08:05:47.474Z,42.43
2019-02-14T08:08:15.850Z,42.16
2019-02-14T08:10:44.239Z,42.15
2019-02-14T08:13:12.606Z,42.25
2019-02-14T08:15:40.994Z,42.25
2019-02-14T08:18:09.366Z,42.42
2019-02-14T08:20:37.751Z,42.44
2019-02-14T08:23:06.139Z,42.54
2019-02-14T08:25:34.518Z,42.60
2019-02-14T08:28:02.886Z,42.61
2019-02-14T08:30:31.280Z,42.56
2019-02-14T08:32:59.657Z,42.59
2019-02-14T08:35:28.045Z,42.62
2019-02-14T08:37:56.414Z,42.60
2019-02-14T08:40:27.073Z,42.79
2019-02-14T08:42:55.981Z,43.08
2019-02-14T08:45:24.358Z,43.22
2019-02-14T08:47:52.735Z,43.30
2019-02-14T08:50:21.119Z,43.36
2019-02-14T08:52:49.494Z,43.58
2019-02-14T08:55:18.016Z,43.47
2019-02-14T08:57:46.409Z,43.46
2019-02-14T09:00:16.233Z,43.34
2019-02-14T09:02:44.605Z,43.32
2019-02-14T09:05:13.579Z,43.21
2019-02-14T09:07:41.953Z,43.24
2019-02-14T09:10:18.084Z,43.24
2019-02-14T09:12:46.452Z,43.24
2019-02-14T09:15:15.282Z,43.36
2019-02-14T09:17:43.648Z,43.40
2019-02-14T09:20:19.664Z,43.38
2019-02-14T09:22:48.029Z,43.32
2019-02-14T09:25:16.413Z,43.38
2019-02-14T09:27:44.836Z,43.34
2019-02-14T09:30:16.858Z,43.33
2019-02-14T09:32:45.228Z,43.31
2019-02-14T09:35:13.612Z,43.21
2019-02-14T09:37:41.989Z,43.16
2019-02-14T09:40:14.957Z,43.11
2019-02-14T09:42:43.326Z,43.01
2019-02-14T09:45:13.359Z,42.96
2019-02-14T09:47:41.745Z,42.93
2019-02-14T09:50:14.183Z,42.81
2019-02-14T09:52:42.738Z,42.77
2019-02-14T09:55:12.922Z,42.73
2019-02-14T09:57:41.319Z,42.55
2019-02-14T10:00:20.113Z,42.68
2019-02-14T10:02:48.480Z,42.61
2019-02-14T10:05:17.027Z,42.61
2019-02-14T10:07:45.427Z,42.59
2019-02-14T10:10:18.999Z,42.44
2019-02-14T10:12:47.374Z,42.53
2019-02-14T10:15:15.832Z,42.58
2019-02-14T10:17:44.197Z,42.53
2019-02-14T10:20:14.528Z,42.48
2019-02-14T10:22:42.893Z,42.39
2019-02-14T10:25:12.215Z,42.41
2019-02-14T10:27:40.620Z,42.58
2019-02-14T10:30:14.887Z,42.65
2019-02-14T10:32:43.301Z,42.70
2019-02-14T10:35:11.642Z,42.73
2019-02-14T10:37:40.014Z,42.67
2019-02-14T10:40:11.140Z,42.58
2019-02-14T10:42:39.506Z,42.58
2019-02-14T10:45:18.665Z,42.67
2019-02-14T10:47:46.970Z,42.82
2019-02-14T10:50:15.349Z,42.90
2019-02-14T10:52:43.759Z,42.87
2019-02-14T10:55:13.911Z,42.98
2019-02-14T10:57:42.293Z,42.94
2019-02-14T11:00:17.597Z,43.00
2019-02-14T11:02:46.209Z,43.21
2019-02-14T11:05:15.524Z,43.18
2019-02-14T11:07:43.974Z,43.02
2019-02-14T11:10:13.899Z,42.79
2019-02-14T11:12:42.440Z,42.96
2019-02-14T11:15:13.055Z,42.66
2019-02-14T11:17:41.513Z,42.66
2019-02-14T11:20:14.502Z,42.54
2019-02-14T11:22:42.873Z,42.46
2019-02-14T11:25:30.944Z,42.51
2019-02-14T11:27:59.314Z,42.57
2019-02-14T11:30:27.690Z,42.46
2019-02-14T11:32:56.180Z,42.41
2019-02-14T11:35:24.581Z,42.31
2019-02-14T11:37:52.950Z,42.33
2019-02-14T11:40:21.324Z,42.30
2019-02-14T11:42:49.710Z,42.19
2019-02-14T11:45:23.868Z,42.12
2019-02-14T11:47:52.248Z,42.03
2019-02-14T11:50:20.633Z,41.93
2019-02-14T11:52:49.029Z,41.89
2019-02-14T11:55:17.407Z,41.81
2019-02-14T11:57:45.797Z,41.75
2019-02-14T12:00:23.879Z,41.72
2019-02-14T12:02:55.929Z,41.67
2019-02-14T12:05:23.441Z,41.65
2019-02-14T12:07:51.814Z,41.65
2019-02-14T12:10:20.182Z,41.62
2019-02-14T12:12:48.563Z,41.64
2019-02-14T12:15:16.930Z,41.57
2019-02-14T12:17:45.320Z,41.63
2019-02-14T12:20:15.430Z,41.56
2019-02-14T12:22:46.788Z,41.54
2019-02-14T12:25:19.595Z,41.52
2019-02-14T12:27:47.976Z,41.50
2019-02-14T12:30:16.514Z,41.20
2019-02-14T12:32:44.894Z,41.35
2019-02-14T12:35:13.266Z,41.27
2019-02-14T12:37:41.656Z,41.31
2019-02-14T12:40:12.132Z,41.21
2019-02-14T12:42:40.519Z,41.33
2019-02-14T12:45:20.517Z,41.20
2019-02-14T12:47:47.628Z,41.19
2019-02-14T12:50:16.044Z,41.11
2019-02-14T12:52:44.438Z,41.10
2019-02-14T12:55:12.871Z,41.18
2019-02-14T12:57:41.253Z,40.93
2019-02-14T13:00:18.228Z,40.82
2019-02-14T13:02:46.678Z,40.83
2019-02-14T13:05:15.055Z,40.92
2019-02-14T13:07:43.433Z,40.93
2019-02-14T13:10:14.054Z,41.01
2019-02-14T13:12:42.434Z,41.04
2019-02-14T13:15:26.030Z,40.95
2019-02-14T13:17:54.416Z,40.63
2019-02-14T13:20:22.859Z,40.60
2019-02-14T13:22:51.243Z,40.58
2019-02-14T13:25:19.614Z,40.70
2019-02-14T13:27:47.993Z,40.89
2019-02-14T13:30:24.949Z,40.97
2019-02-14T13:32:53.388Z,41.23
2019-02-14T13:35:21.787Z,40.88
2019-02-14T13:37:50.158Z,40.54
2019-02-14T13:40:18.530Z,40.71
2019-02-14T13:42:46.910Z,40.34
2019-02-14T13:45:23.335Z,40.92
2019-02-14T13:47:51.785Z,40.29
2019-02-14T13:50:20.324Z,40.03
2019-02-14T13:52:48.704Z,39.91
2019-02-14T13:55:17.073Z,39.82
2019-02-14T13:57:45.463Z,39.83
2019-02-14T14:00:28.142Z,40.16
2019-02-14T14:02:56.529Z,40.33
2019-02-14T14:05:24.901Z,40.52
2019-02-14T14:07:53.290Z,40.58
2019-02-14T14:10:21.671Z,40.49
2019-02-14T14:12:50.113Z,40.78
2019-02-14T14:15:18.485Z,40.59
2019-02-14T14:17:46.876Z,40.84
2019-02-14T14:20:15.247Z,40.98
2019-02-14T14:22:43.630Z,40.67
2019-02-14T14:25:12.268Z,40.92
2019-02-14T14:27:40.647Z,41.04
2019-02-14T14:30:13.915Z,40.80
2019-02-14T14:32:42.294Z,40.81
2019-02-14T14:35:11.529Z,41.05
2019-02-14T14:37:39.953Z,40.92
2019-02-14T14:40:13.436Z,40.89
2019-02-14T14:42:52.284Z,41.17
2019-02-14T14:45:40.734Z,40.97
2019-02-14T14:48:19.259Z,40.97
2019-02-14T14:50:40.851Z,40.97
2019-02-14T14:53:09.232Z,41.09
2019-02-14T14:55:37.598Z,41.21
2019-02-14T14:58:05.987Z,41.02
2019-02-14T15:00:34.725Z,41.22
2019-02-14T15:03:03.119Z,41.00
2019-02-14T15:05:31.747Z,41.23
2019-02-14T15:08:00.457Z,41.70
2019-02-14T15:10:28.984Z,41.57
2019-02-14T15:12:57.372Z,41.41
2019-02-14T15:15:25.780Z,40.83
2019-02-14T15:17:54.166Z,41.28
2019-02-14T15:20:22.534Z,40.83
2019-02-14T15:22:50.916Z,41.07
2019-02-14T15:25:19.288Z,41.69
2019-02-14T15:27:47.660Z,41.52
2019-02-14T15:30:16.051Z,41.49
2019-02-14T15:32:44.419Z,41.87
2019-02-14T15:35:12.924Z,41.87
2019-02-14T15:37:42.010Z,41.39
2019-02-14T15:40:11.350Z,41.39
2019-02-14T15:42:39.727Z,41.18
2019-02-14T15:45:08.759Z,41.59
2019-02-14T15:47:37.127Z,41.45
2019-02-14T15:50:08.866Z,41.53
2019-02-14T15:52:37.500Z,41.64
2019-02-14T15:55:07.325Z,41.73
2019-02-14T15:57:35.688Z,42.00
2019-02-14T16:00:09.641Z,42.19
2019-02-14T16:02:36.191Z,41.80
2019-02-14T16:05:05.824Z,41.86
2019-02-14T16:07:34.211Z,42.14
2019-02-14T16:10:03.757Z,42.07
2019-02-14T16:12:32.740Z,41.93
2019-02-14T16:15:01.133Z,42.23
2019-02-14T16:17:29.574Z,42.49
2019-02-14T16:19:59.671Z,42.23
2019-02-14T16:22:29.987Z,42.45
2019-02-14T16:24:58.272Z,42.44
2019-02-14T16:27:26.939Z,42.42
2019-02-14T16:29:55.407Z,42.60
2019-02-14T16:32:23.781Z,42.55
2019-02-14T16:34:52.186Z,42.53
2019-02-14T16:37:20.554Z,42.72
2019-02-14T16:39:51.771Z,42.97
2019-02-14T16:42:19.049Z,42.90
2019-02-14T16:44:47.425Z,43.09
2019-02-14T16:47:15.832Z,43.15
2019-02-14T16:49:44.226Z,43.15
2019-02-14T16:52:12.585Z,43.03
2019-02-14T16:54:40.968Z,43.12
2019-02-14T16:57:09.343Z,43.41
2019-02-14T16:59:37.723Z,43.29
2019-02-14T17:02:06.091Z,43.34
2019-02-14T17:04:34.524Z,43.12
2019-02-14T17:07:02.925Z,43.41
2019-02-14T17:09:31.306Z,43.13
2019-02-14T17:11:59.955Z,43.40
2019-02-14T17:14:28.594Z,43.49
2019-02-14T17:16:56.967Z,43.66
2019-02-14T17:19:25.346Z,43.71
2019-02-14T17:21:53.719Z,44.03
2019-02-14T17:24:22.105Z,44.35
2019-02-14T17:26:51.011Z,44.29
2019-02-14T17:29:19.387Z,44.40
2019-02-14T17:31:47.764Z,44.30
2019-02-14T17:34:16.134Z,44.07
2019-02-14T17:36:44.524Z,44.33
2019-02-14T17:39:12.895Z,43.90
2019-02-14T17:41:41.279Z,44.01
2019-02-14T17:44:09.651Z,44.26
2019-02-14T17:46:38.039Z,44.20
2019-02-14T17:49:06.489Z,44.39
2019-02-14T17:51:35.079Z,44.56
2019-02-14T17:54:03.455Z,44.33
2019-02-14T17:56:31.857Z,44.09
2019-02-14T17:59:00.610Z,43.91
2019-02-14T18:01:28.990Z,43.91
2019-02-14T18:03:57.385Z,44.16
2019-02-14T18:06:25.766Z,44.43
2019-02-14T18:08:54.140Z,44.53
2019-02-14T18:11:22.523Z,44.29
2019-02-14T18:13:50.894Z,44.22
2019-02-14T18:16:19.272Z,44.15
2019-02-14T18:18:47.642Z,44.00
2019-02-14T18:21:16.022Z,43.93
2019-02-14T18:23:44.534Z,43.76
2019-02-14T18:26:14.749Z,43.48
2019-02-14T18:28:43.145Z,43.90
2019-02-14T18:31:11.579Z,43.86
2019-02-14T18:33:39.945Z,43.43
2019-02-14T18:36:08.332Z,43.25
2019-02-14T18:38:36.807Z,43.56
2019-02-14T18:41:05.196Z,43.42
2019-02-14T18:43:33.577Z,44.07
2019-02-14T18:46:01.959Z,43.30
2019-02-14T18:48:30.804Z,43.55
2019-02-14T18:50:59.190Z,43.74
2019-02-14T18:53:27.564Z,43.83
2019-02-14T18:55:55.939Z,45.11
2019-02-14T18:58:26.710Z,45.84
2019-02-14T19:00:54.668Z,46.50
2019-02-14T19:03:23.039Z,46.68
2019-02-14T19:05:51.429Z,46.94
2019-02-14T19:08:19.797Z,48.00
2019-02-14T19:10:48.180Z,50.04
2019-02-14T19:13:18.717Z,49.79
2019-02-14T19:15:46.659Z,49.66
2019-02-14T19:18:15.033Z,50.52
2019-02-14T19:20:43.438Z,50.06
2019-02-14T19:23:23.068Z,49.36
2019-02-14T19:25:41.904Z,48.55
2019-02-14T19:28:10.283Z,48.24
2019-02-14T19:30:38.667Z,48.13
2019-02-14T19:33:07.039Z,48.29
2019-02-14T19:35:35.424Z,47.61
2019-02-14T19:38:03.809Z,48.05
2019-02-14T19:40:32.165Z,48.05
2019-02-14T19:43:01.179Z,48.22
2019-02-14T19:45:36.293Z,47.84
2019-02-14T19:47:59.656Z,46.49
2019-02-14T19:50:28.029Z,47.29
2019-02-14T19:52:56.433Z,46.46
2019-02-14T19:55:24.784Z,46.16
2019-02-14T19:57:54.491Z,46.43
2019-02-14T20:00:23.171Z,47.23
2019-02-14T20:02:51.557Z,46.18
2019-02-14T20:05:19.947Z,44.36
2019-02-14T20:07:48.325Z,46.64
2019-02-14T20:10:16.715Z,46.20
2019-02-14T20:12:45.098Z,46.32
2019-02-14T20:15:18.550Z,46.08
2019-02-14T20:17:46.913Z,46.34
2019-02-14T20:20:15.518Z,45.82
2019-02-14T20:22:43.932Z,45.79
2019-02-14T20:25:18.189Z,46.00
2019-02-14T20:27:46.565Z,45.96
2019-02-14T20:30:14.952Z,46.00
2019-02-14T20:32:43.327Z,45.72
2019-02-14T20:35:11.703Z,44.78
2019-02-14T20:37:40.084Z,45.62
2019-02-14T20:40:10.303Z,44.90
2019-02-14T20:42:38.760Z,45.17
2019-02-14T20:45:10.081Z,44.87
2019-02-14T20:47:38.467Z,44.42
2019-02-14T20:50:09.889Z,45.01
2019-02-14T20:52:38.283Z,43.98
2019-02-14T20:55:09.790Z,44.87
2019-02-14T20:57:38.174Z,45.24
2019-02-14T21:00:11.358Z,45.22
2019-02-14T21:02:39.720Z,45.02
2019-02-14T21:05:08.094Z,44.73
2019-02-14T21:07:36.483Z,44.59
2019-02-14T21:10:06.696Z,43.62
2019-02-14T21:12:35.078Z,43.80
2019-02-14T21:15:03.573Z,45.33
2019-02-14T21:17:31.930Z,44.76
2019-02-14T21:20:00.318Z,44.71
2019-02-14T21:22:28.783Z,43.08
2019-02-14T21:24:57.166Z,44.02
2019-02-14T21:27:25.557Z,43.17
2019-02-14T21:29:53.927Z,42.75
2019-02-14T21:32:22.312Z,41.53
2019-02-14T21:34:51.617Z,42.68
2019-02-14T21:37:20.012Z,42.25
2019-02-14T21:39:48.391Z,40.61
2019-02-14T21:42:20.516Z,43.03
2019-02-14T21:44:46.885Z,42.08
2019-02-14T21:47:15.276Z,42.41
2019-02-14T21:49:43.642Z,41.46
2019-02-14T21:52:12.038Z,41.38
2019-02-14T21:54:40.403Z,41.88
2019-02-14T21:57:08.871Z,42.80
2019-02-14T21:59:37.334Z,42.70
2019-02-14T22:02:06.760Z,43.08
2019-02-14T22:04:35.347Z,43.46
2019-02-14T22:07:04.202Z,42.73
2019-02-14T22:09:33.029Z,43.23
2019-02-14T22:12:01.400Z,43.06
2019-02-14T22:14:29.831Z,43.06
2019-02-14T22:16:58.183Z,43.05
2019-02-14T22:19:26.545Z,42.80
2019-02-14T22:21:54.981Z,42.93
2019-02-14T22:24:23.652Z,43.12
2019-02-14T22:26:52.024Z,43.68
2019-02-14T22:29:20.415Z,43.95
2019-02-14T22:31:48.786Z,43.85
2019-02-14T22:34:17.169Z,43.63
2019-02-14T22:36:45.541Z,43.78
2019-02-14T22:39:13.947Z,43.17
2019-02-14T22:41:43.289Z,42.96
2019-02-14T22:44:11.731Z,43.28
2019-02-14T22:46:40.098Z,42.79
2019-02-14T22:49:08.478Z,43.86
2019-02-14T22:51:36.917Z,44.19
2019-02-14T22:54:05.376Z,44.37
2019-02-14T22:56:33.743Z,44.11
2019-02-14T22:59:02.715Z,44.35
2019-02-14T23:01:31.157Z,43.83
2019-02-14T23:03:59.706Z,44.18
2019-02-14T23:06:28.913Z,44.09
2019-02-14T23:08:57.295Z,44.08
2019-02-14T23:11:25.662Z,44.03
2019-02-14T23:13:54.045Z,43.69
2019-02-14T23:16:22.442Z,44.09
2019-02-14T23:18:50.821Z,43.69
2019-02-14T23:21:19.193Z,44.10
2019-02-14T23:23:47.573Z,44.23
2019-02-14T23:26:15.957Z,44.49
2019-02-14T23:28:44.337Z,43.92
2019-02-14T23:31:12.705Z,44.01
2019-02-14T23:33:41.100Z,43.83
2019-02-14T23:36:09.471Z,43.97
2019-02-14T23:38:37.852Z,43.87
2019-02-14T23:41:06.230Z,44.09
2019-02-14T23:43:34.620Z,44.03
2019-02-14T23:46:03.198Z,44.10
2019-02-14T23:48:31.854Z,44.16
2019-02-14T23:51:00.284Z,43.92
2019-02-14T23:53:28.691Z,43.47
2019-02-14T23:55:57.064Z,43.82
2019-02-14T23:58:25.444Z,44.11
